sensor_id;sensor_type;location;lat;lon;timestamp;P1;durP1;ratioP1;P2;durP2;ratioP2
53052;SDS011;38934;52.690;6.184;2023-02-20T00:01:53;16.10;;;11.88;;
53052;SDS011;38934;52.690;6.184;2023-02-20T00:04:21;15.30;;;11.43;;
53052;SDS011;38934;52.690;6.184;2023-02-20T00:06:48;15.48;;;11.65;;
53052;SDS011;38934;52.690;6.184;2023-02-20T00:09:14;14.52;;;10.80;;
53052;SDS011;38934;52.690;6.184;2023-02-20T00:11:43;14.48;;;10.50;;
53052;SDS011;38934;52.690;6.184;2023-02-20T00:16:47;15.52;;;10.43;;
53052;SDS011;38934;52.690;6.184;2023-02-20T00:19:14;15.77;;;10.50;;
53052;SDS011;38934;52.690;6.184;2023-02-20T00:21:44;13.98;;;9.85;;
53052;SDS011;38934;52.690;6.184;2023-02-20T00:24:20;13.48;;;9.70;;
53052;SDS011;38934;52.690;6.184;2023-02-20T00:29:26;13.48;;;9.68;;
53052;SDS011;38934;52.690;6.184;2023-02-20T00:32:10;12.57;;;8.82;;
53052;SDS011;38934;52.690;6.184;2023-02-20T00:34:46;14.25;;;8.82;;
53052;SDS011;38934;52.690;6.184;2023-02-20T00:37:12;13.55;;;8.95;;
53052;SDS011;38934;52.690;6.184;2023-02-20T00:39:40;11.55;;;8.57;;
53052;SDS011;38934;52.690;6.184;2023-02-20T00:42:07;13.40;;;9.65;;
53052;SDS011;38934;52.690;6.184;2023-02-20T00:44:40;15.02;;;8.82;;
53052;SDS011;38934;52.690;6.184;2023-02-20T00:47:09;11.00;;;8.70;;
53052;SDS011;38934;52.690;6.184;2023-02-20T00:49:37;12.85;;;8.73;;
53052;SDS011;38934;52.690;6.184;2023-02-20T00:57:46;14.18;;;9.63;;
53052;SDS011;38934;52.690;6.184;2023-02-20T01:00:21;13.80;;;8.98;;
53052;SDS011;38934;52.690;6.184;2023-02-20T01:02:51;14.73;;;9.35;;
53052;SDS011;38934;52.690;6.184;2023-02-20T01:05:17;14.77;;;9.20;;
53052;SDS011;38934;52.690;6.184;2023-02-20T01:07:46;15.07;;;9.20;;
53052;SDS011;38934;52.690;6.184;2023-02-20T01:10:13;14.77;;;9.02;;
53052;SDS011;38934;52.690;6.184;2023-02-20T01:15:27;16.60;;;9.60;;
53052;SDS011;38934;52.690;6.184;2023-02-20T01:18:05;16.35;;;10.38;;
53052;SDS011;38934;52.690;6.184;2023-02-20T01:20:35;15.60;;;9.98;;
53052;SDS011;38934;52.690;6.184;2023-02-20T01:23:02;16.50;;;10.32;;
53052;SDS011;38934;52.690;6.184;2023-02-20T01:25:41;17.35;;;10.30;;
53052;SDS011;38934;52.690;6.184;2023-02-20T01:30:46;20.13;;;10.52;;
53052;SDS011;38934;52.690;6.184;2023-02-20T01:33:15;17.25;;;10.60;;
53052;SDS011;38934;52.690;6.184;2023-02-20T01:35:41;17.42;;;10.23;;
53052;SDS011;38934;52.690;6.184;2023-02-20T01:41:04;20.42;;;11.43;;
53052;SDS011;38934;52.690;6.184;2023-02-20T01:43:40;19.95;;;11.38;;
53052;SDS011;38934;52.690;6.184;2023-02-20T01:55:38;18.63;;;11.65;;
53052;SDS011;38934;52.690;6.184;2023-02-20T02:01:24;20.20;;;12.68;;
53052;SDS011;38934;52.690;6.184;2023-02-20T02:03:52;19.65;;;12.18;;
53052;SDS011;38934;52.690;6.184;2023-02-20T02:06:24;19.58;;;12.93;;
53052;SDS011;38934;52.690;6.184;2023-02-20T02:08:52;20.63;;;12.20;;
53052;SDS011;38934;52.690;6.184;2023-02-20T02:11:20;22.65;;;12.43;;
53052;SDS011;38934;52.690;6.184;2023-02-20T02:13:48;22.13;;;13.15;;
53052;SDS011;38934;52.690;6.184;2023-02-20T02:16:32;19.65;;;12.50;;
53052;SDS011;38934;52.690;6.184;2023-02-20T02:40:03;22.15;;;12.48;;
53052;SDS011;38934;52.690;6.184;2023-02-20T02:42:40;22.98;;;12.70;;
53052;SDS011;38934;52.690;6.184;2023-02-20T02:45:17;21.38;;;13.10;;
53052;SDS011;38934;52.690;6.184;2023-02-20T02:47:53;24.90;;;13.43;;
53052;SDS011;38934;52.690;6.184;2023-02-20T02:50:21;22.20;;;13.55;;
53052;SDS011;38934;52.690;6.184;2023-02-20T02:52:49;24.00;;;13.43;;
53052;SDS011;38934;52.690;6.184;2023-02-20T02:55:21;22.80;;;13.38;;
53052;SDS011;38934;52.690;6.184;2023-02-20T02:57:48;22.00;;;13.80;;
53052;SDS011;38934;52.690;6.184;2023-02-20T03:00:16;21.52;;;13.27;;
53052;SDS011;38934;52.690;6.184;2023-02-20T03:02:46;25.17;;;14.07;;
53052;SDS011;38934;52.690;6.184;2023-02-20T03:05:17;24.63;;;13.38;;
53052;SDS011;38934;52.690;6.184;2023-02-20T03:07:44;25.48;;;13.88;;
53052;SDS011;38934;52.690;6.184;2023-02-20T03:10:12;23.15;;;13.85;;
53052;SDS011;38934;52.690;6.184;2023-02-20T03:12:44;24.73;;;14.23;;
53052;SDS011;38934;52.690;6.184;2023-02-20T03:15:48;28.15;;;14.18;;
53052;SDS011;38934;52.690;6.184;2023-02-20T03:20:36;26.67;;;14.30;;
53052;SDS011;38934;52.690;6.184;2023-02-20T03:23:04;24.80;;;14.45;;
53052;SDS011;38934;52.690;6.184;2023-02-20T03:25:35;25.27;;;14.95;;
53052;SDS011;38934;52.690;6.184;2023-02-20T03:28:05;22.90;;;15.10;;
53052;SDS011;38934;52.690;6.184;2023-02-20T03:30:35;24.98;;;15.05;;
53052;SDS011;38934;52.690;6.184;2023-02-20T03:36:06;28.67;;;15.73;;
53052;SDS011;38934;52.690;6.184;2023-02-20T03:38:54;31.42;;;15.88;;
53052;SDS011;38934;52.690;6.184;2023-02-20T03:41:42;33.60;;;17.20;;
53052;SDS011;38934;52.690;6.184;2023-02-20T03:44:27;28.65;;;18.10;;
53052;SDS011;38934;52.690;6.184;2023-02-20T03:46:55;34.88;;;18.13;;
53052;SDS011;38934;52.690;6.184;2023-02-20T03:49:22;37.10;;;19.27;;
53052;SDS011;38934;52.690;6.184;2023-02-20T03:51:50;36.53;;;19.17;;
53052;SDS011;38934;52.690;6.184;2023-02-20T03:54:23;34.83;;;19.50;;
53052;SDS011;38934;52.690;6.184;2023-02-20T03:56:49;36.20;;;19.75;;
53052;SDS011;38934;52.690;6.184;2023-02-20T03:59:21;39.47;;;19.70;;
53052;SDS011;38934;52.690;6.184;2023-02-20T04:01:49;40.22;;;21.40;;
53052;SDS011;38934;52.690;6.184;2023-02-20T04:04:18;40.25;;;21.33;;
53052;SDS011;38934;52.690;6.184;2023-02-20T04:06:46;36.90;;;21.27;;
53052;SDS011;38934;52.690;6.184;2023-02-20T04:09:16;45.08;;;22.15;;
53052;SDS011;38934;52.690;6.184;2023-02-20T04:11:46;41.30;;;23.00;;
53052;SDS011;38934;52.690;6.184;2023-02-20T04:14:13;45.17;;;22.88;;
53052;SDS011;38934;52.690;6.184;2023-02-20T04:16:48;44.08;;;22.75;;
53052;SDS011;38934;52.690;6.184;2023-02-20T04:19:15;45.33;;;23.75;;
53052;SDS011;38934;52.690;6.184;2023-02-20T04:21:49;44.85;;;22.85;;
53052;SDS011;38934;52.690;6.184;2023-02-20T04:24:17;51.72;;;23.48;;
53052;SDS011;38934;52.690;6.184;2023-02-20T04:26:44;48.00;;;23.27;;
53052;SDS011;38934;52.690;6.184;2023-02-20T04:29:10;47.33;;;22.02;;
53052;SDS011;38934;52.690;6.184;2023-02-20T04:31:36;46.97;;;22.83;;
53052;SDS011;38934;52.690;6.184;2023-02-20T04:34:02;48.95;;;23.35;;
53052;SDS011;38934;52.690;6.184;2023-02-20T04:36:28;55.33;;;24.75;;
53052;SDS011;38934;52.690;6.184;2023-02-20T04:38:54;44.58;;;23.90;;
53052;SDS011;38934;52.690;6.184;2023-02-20T04:41:20;58.70;;;24.63;;
53052;SDS011;38934;52.690;6.184;2023-02-20T04:43:46;40.13;;;22.95;;
53052;SDS011;38934;52.690;6.184;2023-02-20T04:46:13;54.35;;;23.65;;
53052;SDS011;38934;52.690;6.184;2023-02-20T04:48:39;44.92;;;22.77;;
53052;SDS011;38934;52.690;6.184;2023-02-20T04:51:05;58.88;;;23.60;;
53052;SDS011;38934;52.690;6.184;2023-02-20T04:53:31;38.83;;;21.30;;
53052;SDS011;38934;52.690;6.184;2023-02-20T04:55:57;54.17;;;23.60;;
53052;SDS011;38934;52.690;6.184;2023-02-20T04:58:23;49.25;;;23.05;;
53052;SDS011;38934;52.690;6.184;2023-02-20T05:00:50;48.92;;;22.42;;
53052;SDS011;38934;52.690;6.184;2023-02-20T05:03:16;45.47;;;22.27;;
53052;SDS011;38934;52.690;6.184;2023-02-20T05:05:42;50.90;;;22.58;;
53052;SDS011;38934;52.690;6.184;2023-02-20T05:08:08;43.55;;;22.00;;
53052;SDS011;38934;52.690;6.184;2023-02-20T05:10:34;40.80;;;21.42;;
53052;SDS011;38934;52.690;6.184;2023-02-20T05:13:02;46.63;;;22.00;;
53052;SDS011;38934;52.690;6.184;2023-02-20T05:15:29;39.35;;;20.70;;
53052;SDS011;38934;52.690;6.184;2023-02-20T05:17:55;41.72;;;20.83;;
53052;SDS011;38934;52.690;6.184;2023-02-20T05:20:21;40.35;;;20.60;;
53052;SDS011;38934;52.690;6.184;2023-02-20T05:23:07;49.13;;;22.23;;
53052;SDS011;38934;52.690;6.184;2023-02-20T05:25:33;40.05;;;20.58;;
53052;SDS011;38934;52.690;6.184;2023-02-20T05:27:59;38.97;;;20.55;;
53052;SDS011;38934;52.690;6.184;2023-02-20T05:30:25;45.63;;;21.55;;
53052;SDS011;38934;52.690;6.184;2023-02-20T05:32:51;40.40;;;19.92;;
53052;SDS011;38934;52.690;6.184;2023-02-20T05:35:17;40.55;;;19.90;;
53052;SDS011;38934;52.690;6.184;2023-02-20T05:37:43;40.92;;;20.73;;
53052;SDS011;38934;52.690;6.184;2023-02-20T05:40:09;41.45;;;20.17;;
53052;SDS011;38934;52.690;6.184;2023-02-20T05:42:35;36.28;;;20.50;;
53052;SDS011;38934;52.690;6.184;2023-02-20T05:45:01;40.85;;;19.73;;
53052;SDS011;38934;52.690;6.184;2023-02-20T05:47:28;44.72;;;19.50;;
53052;SDS011;38934;52.690;6.184;2023-02-20T05:49:54;39.10;;;19.83;;
53052;SDS011;38934;52.690;6.184;2023-02-20T05:52:20;39.08;;;18.20;;
53052;SDS011;38934;52.690;6.184;2023-02-20T05:54:48;35.65;;;18.90;;
53052;SDS011;38934;52.690;6.184;2023-02-20T05:57:14;35.53;;;17.95;;
53052;SDS011;38934;52.690;6.184;2023-02-20T05:59:40;31.77;;;18.10;;
53052;SDS011;38934;52.690;6.184;2023-02-20T06:02:06;32.47;;;17.10;;
53052;SDS011;38934;52.690;6.184;2023-02-20T06:04:32;31.80;;;16.98;;
53052;SDS011;38934;52.690;6.184;2023-02-20T06:06:58;32.13;;;16.42;;
53052;SDS011;38934;52.690;6.184;2023-02-20T06:09:24;37.33;;;17.20;;
53052;SDS011;38934;52.690;6.184;2023-02-20T06:11:54;27.27;;;15.98;;
53052;SDS011;38934;52.690;6.184;2023-02-20T06:14:21;31.25;;;15.48;;
53052;SDS011;38934;52.690;6.184;2023-02-20T06:16:47;29.80;;;15.07;;
53052;SDS011;38934;52.690;6.184;2023-02-20T06:19:20;27.85;;;14.40;;
53052;SDS011;38934;52.690;6.184;2023-02-20T06:21:47;33.72;;;14.75;;
53052;SDS011;38934;52.690;6.184;2023-02-20T06:24:14;31.27;;;14.85;;
53052;SDS011;38934;52.690;6.184;2023-02-20T06:26:40;27.42;;;13.77;;
53052;SDS011;38934;52.690;6.184;2023-02-20T06:29:06;33.33;;;15.00;;
53052;SDS011;38934;52.690;6.184;2023-02-20T06:31:32;26.92;;;13.88;;
53052;SDS011;38934;52.690;6.184;2023-02-20T06:33:58;24.75;;;13.98;;
53052;SDS011;38934;52.690;6.184;2023-02-20T06:36:26;26.23;;;13.77;;
53052;SDS011;38934;52.690;6.184;2023-02-20T06:38:52;30.48;;;13.30;;
53052;SDS011;38934;52.690;6.184;2023-02-20T06:41:18;22.77;;;12.57;;
53052;SDS011;38934;52.690;6.184;2023-02-20T06:43:45;24.50;;;13.13;;
53052;SDS011;38934;52.690;6.184;2023-02-20T06:46:12;27.30;;;14.38;;
53052;SDS011;38934;52.690;6.184;2023-02-20T06:48:45;24.90;;;12.95;;
53052;SDS011;38934;52.690;6.184;2023-02-20T06:51:11;31.40;;;12.52;;
53052;SDS011;38934;52.690;6.184;2023-02-20T06:53:37;24.77;;;12.32;;
53052;SDS011;38934;52.690;6.184;2023-02-20T06:56:07;21.67;;;12.02;;
53052;SDS011;38934;52.690;6.184;2023-02-20T06:58:35;27.58;;;12.55;;
53052;SDS011;38934;52.690;6.184;2023-02-20T07:01:00;22.20;;;11.48;;
53052;SDS011;38934;52.690;6.184;2023-02-20T07:03:28;23.30;;;10.95;;
53052;SDS011;38934;52.690;6.184;2023-02-20T07:05:55;27.15;;;11.73;;
53052;SDS011;38934;52.690;6.184;2023-02-20T07:08:21;25.67;;;11.27;;
53052;SDS011;38934;52.690;6.184;2023-02-20T07:10:47;31.58;;;11.52;;
53052;SDS011;38934;52.690;6.184;2023-02-20T07:13:13;22.27;;;10.85;;
53052;SDS011;38934;52.690;6.184;2023-02-20T07:15:39;24.23;;;11.52;;
53052;SDS011;38934;52.690;6.184;2023-02-20T07:18:06;24.70;;;11.52;;
53052;SDS011;38934;52.690;6.184;2023-02-20T07:20:32;23.45;;;11.10;;
53052;SDS011;38934;52.690;6.184;2023-02-20T07:22:59;21.17;;;11.43;;
53052;SDS011;38934;52.690;6.184;2023-02-20T07:25:25;21.98;;;11.60;;
53052;SDS011;38934;52.690;6.184;2023-02-20T07:27:51;23.20;;;11.13;;
53052;SDS011;38934;52.690;6.184;2023-02-20T07:30:17;25.75;;;11.10;;
53052;SDS011;38934;52.690;6.184;2023-02-20T07:32:43;19.85;;;11.10;;
53052;SDS011;38934;52.690;6.184;2023-02-20T07:35:09;20.70;;;10.25;;
53052;SDS011;38934;52.690;6.184;2023-02-20T07:37:34;24.90;;;10.73;;
53052;SDS011;38934;52.690;6.184;2023-02-20T07:40:00;22.67;;;10.52;;
53052;SDS011;38934;52.690;6.184;2023-02-20T07:42:26;21.33;;;10.65;;
53052;SDS011;38934;52.690;6.184;2023-02-20T07:44:52;20.35;;;10.07;;
53052;SDS011;38934;52.690;6.184;2023-02-20T07:47:18;22.67;;;10.10;;
53052;SDS011;38934;52.690;6.184;2023-02-20T07:49:46;19.98;;;9.57;;
53052;SDS011;38934;52.690;6.184;2023-02-20T07:52:12;18.88;;;10.18;;
53052;SDS011;38934;52.690;6.184;2023-02-20T07:54:38;22.48;;;9.73;;
53052;SDS011;38934;52.690;6.184;2023-02-20T07:57:04;19.15;;;10.30;;
53052;SDS011;38934;52.690;6.184;2023-02-20T07:59:30;19.90;;;9.52;;
53052;SDS011;38934;52.690;6.184;2023-02-20T08:01:56;17.65;;;9.27;;
53052;SDS011;38934;52.690;6.184;2023-02-20T08:04:22;18.55;;;9.95;;
53052;SDS011;38934;52.690;6.184;2023-02-20T08:06:48;20.27;;;10.35;;
53052;SDS011;38934;52.690;6.184;2023-02-20T08:09:14;16.08;;;9.50;;
53052;SDS011;38934;52.690;6.184;2023-02-20T08:11:40;21.00;;;10.55;;
53052;SDS011;38934;52.690;6.184;2023-02-20T08:14:06;19.27;;;9.63;;
53052;SDS011;38934;52.690;6.184;2023-02-20T08:16:32;17.88;;;9.20;;
53052;SDS011;38934;52.690;6.184;2023-02-20T08:19:00;20.35;;;10.18;;
53052;SDS011;38934;52.690;6.184;2023-02-20T08:21:26;18.17;;;9.02;;
53052;SDS011;38934;52.690;6.184;2023-02-20T08:23:52;21.27;;;9.35;;
53052;SDS011;38934;52.690;6.184;2023-02-20T08:26:19;17.17;;;8.80;;
53052;SDS011;38934;52.690;6.184;2023-02-20T08:28:46;18.45;;;9.20;;
53052;SDS011;38934;52.690;6.184;2023-02-20T08:31:12;21.73;;;8.80;;
53052;SDS011;38934;52.690;6.184;2023-02-20T08:33:38;17.48;;;9.32;;
53052;SDS011;38934;52.690;6.184;2023-02-20T08:36:04;15.88;;;8.68;;
53052;SDS011;38934;52.690;6.184;2023-02-20T08:38:34;16.77;;;8.63;;
53052;SDS011;38934;52.690;6.184;2023-02-20T08:41:10;17.42;;;8.27;;
53052;SDS011;38934;52.690;6.184;2023-02-20T08:43:37;18.20;;;8.93;;
53052;SDS011;38934;52.690;6.184;2023-02-20T08:46:04;17.60;;;8.43;;
53052;SDS011;38934;52.690;6.184;2023-02-20T08:48:30;18.38;;;8.02;;
53052;SDS011;38934;52.690;6.184;2023-02-20T08:50:56;20.83;;;8.25;;
53052;SDS011;38934;52.690;6.184;2023-02-20T08:53:23;20.45;;;7.78;;
53052;SDS011;38934;52.690;6.184;2023-02-20T08:55:49;17.27;;;7.88;;
53052;SDS011;38934;52.690;6.184;2023-02-20T08:58:19;19.33;;;7.97;;
53052;SDS011;38934;52.690;6.184;2023-02-20T09:00:45;17.58;;;7.00;;
53052;SDS011;38934;52.690;6.184;2023-02-20T09:03:13;14.15;;;7.35;;
53052;SDS011;38934;52.690;6.184;2023-02-20T09:05:38;16.90;;;8.52;;
53052;SDS011;38934;52.690;6.184;2023-02-20T09:08:05;17.33;;;8.52;;
53052;SDS011;38934;52.690;6.184;2023-02-20T09:10:31;17.13;;;8.60;;
53052;SDS011;38934;52.690;6.184;2023-02-20T09:12:57;21.38;;;8.38;;
53052;SDS011;38934;52.690;6.184;2023-02-20T09:15:23;15.75;;;7.78;;
53052;SDS011;38934;52.690;6.184;2023-02-20T09:17:50;20.85;;;8.25;;
53052;SDS011;38934;52.690;6.184;2023-02-20T09:20:17;16.75;;;7.15;;
53052;SDS011;38934;52.690;6.184;2023-02-20T09:22:44;23.52;;;8.20;;
53052;SDS011;38934;52.690;6.184;2023-02-20T09:25:11;17.83;;;8.05;;
53052;SDS011;38934;52.690;6.184;2023-02-20T09:27:38;18.35;;;8.52;;
53052;SDS011;38934;52.690;6.184;2023-02-20T09:30:04;19.15;;;8.07;;
53052;SDS011;38934;52.690;6.184;2023-02-20T09:32:30;18.45;;;7.75;;
53052;SDS011;38934;52.690;6.184;2023-02-20T09:34:56;16.98;;;8.15;;
53052;SDS011;38934;52.690;6.184;2023-02-20T09:37:23;14.38;;;7.85;;
53052;SDS011;38934;52.690;6.184;2023-02-20T09:39:49;17.77;;;7.32;;
53052;SDS011;38934;52.690;6.184;2023-02-20T09:42:21;18.27;;;8.85;;
53052;SDS011;38934;52.690;6.184;2023-02-20T09:49:49;18.05;;;7.68;;
53052;SDS011;38934;52.690;6.184;2023-02-20T09:52:15;17.98;;;7.82;;
53052;SDS011;38934;52.690;6.184;2023-02-20T09:54:45;16.38;;;7.57;;
53052;SDS011;38934;52.690;6.184;2023-02-20T09:57:13;16.58;;;8.05;;
53052;SDS011;38934;52.690;6.184;2023-02-20T09:59:44;15.48;;;7.43;;
53052;SDS011;38934;52.690;6.184;2023-02-20T10:02:25;16.95;;;6.93;;
53052;SDS011;38934;52.690;6.184;2023-02-20T10:04:52;17.48;;;7.50;;
53052;SDS011;38934;52.690;6.184;2023-02-20T10:09:46;16.05;;;7.05;;
53052;SDS011;38934;52.690;6.184;2023-02-20T10:12:26;12.52;;;6.60;;
53052;SDS011;38934;52.690;6.184;2023-02-20T10:20:08;15.23;;;6.82;;
53052;SDS011;38934;52.690;6.184;2023-02-20T10:22:36;13.20;;;6.63;;
53052;SDS011;38934;52.690;6.184;2023-02-20T10:27:52;16.13;;;6.47;;
53052;SDS011;38934;52.690;6.184;2023-02-20T10:30:23;15.48;;;6.40;;
53052;SDS011;38934;52.690;6.184;2023-02-20T10:33:14;19.83;;;6.70;;
53052;SDS011;38934;52.690;6.184;2023-02-20T10:35:38;16.70;;;7.15;;
53052;SDS011;38934;52.690;6.184;2023-02-20T10:38:07;15.52;;;6.60;;
53052;SDS011;38934;52.690;6.184;2023-02-20T10:48:12;12.75;;;6.20;;
53052;SDS011;38934;52.690;6.184;2023-02-20T10:50:49;13.57;;;7.00;;
53052;SDS011;38934;52.690;6.184;2023-02-20T11:00:49;13.95;;;6.90;;
53052;SDS011;38934;52.690;6.184;2023-02-20T11:03:18;13.02;;;5.80;;
53052;SDS011;38934;52.690;6.184;2023-02-20T11:05:47;13.02;;;7.07;;
53052;SDS011;38934;52.690;6.184;2023-02-20T11:08:14;11.32;;;6.40;;
53052;SDS011;38934;52.690;6.184;2023-02-20T11:10:46;10.20;;;6.03;;
53052;SDS011;38934;52.690;6.184;2023-02-20T11:13:13;13.30;;;6.32;;
53052;SDS011;38934;52.690;6.184;2023-02-20T11:15:40;12.32;;;5.40;;
53052;SDS011;38934;52.690;6.184;2023-02-20T11:18:18;14.00;;;5.88;;
53052;SDS011;38934;52.690;6.184;2023-02-20T11:20:44;12.07;;;5.88;;
53052;SDS011;38934;52.690;6.184;2023-02-20T11:25:55;10.70;;;5.47;;
53052;SDS011;38934;52.690;6.184;2023-02-20T11:28:37;13.25;;;5.72;;
53052;SDS011;38934;52.690;6.184;2023-02-20T11:31:06;9.85;;;5.60;;
53052;SDS011;38934;52.690;6.184;2023-02-20T11:33:41;14.27;;;5.97;;
53052;SDS011;38934;52.690;6.184;2023-02-20T11:38:35;16.08;;;5.55;;
53052;SDS011;38934;52.690;6.184;2023-02-20T11:41:44;11.90;;;5.45;;
53052;SDS011;38934;52.690;6.184;2023-02-20T11:44:15;12.52;;;5.60;;
53052;SDS011;38934;52.690;6.184;2023-02-20T11:46:42;12.55;;;5.72;;
53052;SDS011;38934;52.690;6.184;2023-02-20T11:49:09;17.23;;;6.18;;
53052;SDS011;38934;52.690;6.184;2023-02-20T11:54:05;12.82;;;6.03;;
53052;SDS011;38934;52.690;6.184;2023-02-20T11:56:32;14.63;;;5.85;;
53052;SDS011;38934;52.690;6.184;2023-02-20T12:01:43;11.10;;;5.30;;
53052;SDS011;38934;52.690;6.184;2023-02-20T12:04:27;9.70;;;5.50;;
53052;SDS011;38934;52.690;6.184;2023-02-20T12:06:53;11.70;;;5.45;;
53052;SDS011;38934;52.690;6.184;2023-02-20T12:09:21;10.82;;;5.40;;
53052;SDS011;38934;52.690;6.184;2023-02-20T12:11:49;11.32;;;5.10;;
53052;SDS011;38934;52.690;6.184;2023-02-20T12:14:16;11.88;;;5.75;;
53052;SDS011;38934;52.690;6.184;2023-02-20T12:16:49;15.40;;;5.50;;
53052;SDS011;38934;52.690;6.184;2023-02-20T12:19:20;15.73;;;5.55;;
53052;SDS011;38934;52.690;6.184;2023-02-20T12:30:02;12.38;;;5.00;;
53052;SDS011;38934;52.690;6.184;2023-02-20T12:32:34;15.85;;;5.85;;
53052;SDS011;38934;52.690;6.184;2023-02-20T12:35:24;11.95;;;5.45;;
53052;SDS011;38934;52.690;6.184;2023-02-20T12:40:32;13.82;;;5.65;;
53052;SDS011;38934;52.690;6.184;2023-02-20T12:45:57;12.52;;;5.45;;
53052;SDS011;38934;52.690;6.184;2023-02-20T12:54:50;11.60;;;5.50;;
53052;SDS011;38934;52.690;6.184;2023-02-20T12:56:57;11.27;;;5.10;;
53052;SDS011;38934;52.690;6.184;2023-02-20T12:59:32;11.25;;;6.05;;
53052;SDS011;38934;52.690;6.184;2023-02-20T13:02:03;12.10;;;5.60;;
53052;SDS011;38934;52.690;6.184;2023-02-20T13:04:39;12.63;;;5.45;;
53052;SDS011;38934;52.690;6.184;2023-02-20T13:07:13;12.10;;;5.68;;
53052;SDS011;38934;52.690;6.184;2023-02-20T13:09:56;12.23;;;5.85;;
53052;SDS011;38934;52.690;6.184;2023-02-20T13:12:22;9.55;;;5.18;;
53052;SDS011;38934;52.690;6.184;2023-02-20T13:14:54;14.15;;;5.57;;
53052;SDS011;38934;52.690;6.184;2023-02-20T13:18:06;18.02;;;6.32;;
53052;SDS011;38934;52.690;6.184;2023-02-20T13:20:17;12.80;;;5.60;;
53052;SDS011;38934;52.690;6.184;2023-02-20T13:27:58;14.63;;;5.18;;
53052;SDS011;38934;52.690;6.184;2023-02-20T13:30:25;11.95;;;5.20;;
53052;SDS011;38934;52.690;6.184;2023-02-20T13:33:38;12.35;;;5.82;;
53052;SDS011;38934;52.690;6.184;2023-02-20T13:38:09;14.23;;;6.57;;
53052;SDS011;38934;52.690;6.184;2023-02-20T13:41:01;10.00;;;4.95;;
53052;SDS011;38934;52.690;6.184;2023-02-20T13:56:21;12.20;;;5.25;;
53052;SDS011;38934;52.690;6.184;2023-02-20T13:58:48;9.73;;;4.82;;
53052;SDS011;38934;52.690;6.184;2023-02-20T14:01:14;11.90;;;4.95;;
53052;SDS011;38934;52.690;6.184;2023-02-20T14:03:40;10.73;;;4.68;;
53052;SDS011;38934;52.690;6.184;2023-02-20T14:06:11;10.02;;;4.88;;
53052;SDS011;38934;52.690;6.184;2023-02-20T14:08:38;12.85;;;5.30;;
53052;SDS011;38934;52.690;6.184;2023-02-20T14:13:50;12.25;;;4.80;;
53052;SDS011;38934;52.690;6.184;2023-02-20T14:16:36;14.48;;;5.47;;
53052;SDS011;38934;52.690;6.184;2023-02-20T14:19:08;14.23;;;5.10;;
53052;SDS011;38934;52.690;6.184;2023-02-20T14:21:39;8.20;;;4.65;;
53052;SDS011;38934;52.690;6.184;2023-02-20T14:24:19;8.73;;;4.72;;
53052;SDS011;38934;52.690;6.184;2023-02-20T14:26:46;11.10;;;4.85;;
53052;SDS011;38934;52.690;6.184;2023-02-20T14:29:20;12.13;;;4.95;;
53052;SDS011;38934;52.690;6.184;2023-02-20T14:31:48;10.18;;;4.90;;
53052;SDS011;38934;52.690;6.184;2023-02-20T14:34:57;11.85;;;4.93;;
53052;SDS011;38934;52.690;6.184;2023-02-20T14:37:09;14.35;;;5.30;;
53052;SDS011;38934;52.690;6.184;2023-02-20T14:42:15;12.35;;;5.05;;
53052;SDS011;38934;52.690;6.184;2023-02-20T14:44:42;13.15;;;4.68;;
53052;SDS011;38934;52.690;6.184;2023-02-20T14:47:09;8.90;;;4.78;;
53052;SDS011;38934;52.690;6.184;2023-02-20T14:49:36;10.75;;;4.90;;
53052;SDS011;38934;52.690;6.184;2023-02-20T14:54:35;14.33;;;5.70;;
53052;SDS011;38934;52.690;6.184;2023-02-20T14:57:01;12.25;;;5.38;;
53052;SDS011;38934;52.690;6.184;2023-02-20T14:59:38;11.70;;;5.10;;
53052;SDS011;38934;52.690;6.184;2023-02-20T15:02:15;11.77;;;5.32;;
53052;SDS011;38934;52.690;6.184;2023-02-20T15:04:46;11.75;;;5.20;;
53052;SDS011;38934;52.690;6.184;2023-02-20T15:07:12;10.43;;;4.90;;
53052;SDS011;38934;52.690;6.184;2023-02-20T15:09:40;9.38;;;5.20;;
53052;SDS011;38934;52.690;6.184;2023-02-20T15:12:54;8.20;;;5.20;;
53052;SDS011;38934;52.690;6.184;2023-02-20T15:14:59;10.48;;;5.43;;
53052;SDS011;38934;52.690;6.184;2023-02-20T15:17:27;12.77;;;5.85;;
53052;SDS011;38934;52.690;6.184;2023-02-20T15:19:53;10.40;;;5.07;;
53052;SDS011;38934;52.690;6.184;2023-02-20T15:22:30;15.57;;;5.20;;
53052;SDS011;38934;52.690;6.184;2023-02-20T15:25:14;14.80;;;5.97;;
53052;SDS011;38934;52.690;6.184;2023-02-20T15:30:31;10.88;;;5.50;;
53052;SDS011;38934;52.690;6.184;2023-02-20T15:32:57;11.85;;;5.15;;
53052;SDS011;38934;52.690;6.184;2023-02-20T15:35:24;8.98;;;5.20;;
53052;SDS011;38934;52.690;6.184;2023-02-20T15:37:54;14.40;;;5.82;;
53052;SDS011;38934;52.690;6.184;2023-02-20T15:40:22;13.70;;;6.03;;
53052;SDS011;38934;52.690;6.184;2023-02-20T15:42:49;11.32;;;5.70;;
53052;SDS011;38934;52.690;6.184;2023-02-20T15:45:20;11.98;;;5.60;;
53052;SDS011;38934;52.690;6.184;2023-02-20T15:47:46;13.63;;;6.93;;
53052;SDS011;38934;52.690;6.184;2023-02-20T15:50:13;13.50;;;6.10;;
53052;SDS011;38934;52.690;6.184;2023-02-20T15:52:39;13.15;;;6.53;;
53052;SDS011;38934;52.690;6.184;2023-02-20T15:55:05;11.70;;;6.10;;
53052;SDS011;38934;52.690;6.184;2023-02-20T15:57:32;11.57;;;6.35;;
53052;SDS011;38934;52.690;6.184;2023-02-20T15:59:58;14.05;;;6.47;;
53052;SDS011;38934;52.690;6.184;2023-02-20T16:02:24;14.55;;;6.40;;
53052;SDS011;38934;52.690;6.184;2023-02-20T16:04:51;14.95;;;6.32;;
53052;SDS011;38934;52.690;6.184;2023-02-20T16:07:18;13.10;;;6.47;;
53052;SDS011;38934;52.690;6.184;2023-02-20T16:09:44;16.70;;;6.93;;
53052;SDS011;38934;52.690;6.184;2023-02-20T16:12:15;11.07;;;6.53;;
53052;SDS011;38934;52.690;6.184;2023-02-20T16:14:41;12.73;;;6.95;;
53052;SDS011;38934;52.690;6.184;2023-02-20T16:17:09;11.55;;;6.50;;
53052;SDS011;38934;52.690;6.184;2023-02-20T16:19:38;13.45;;;7.07;;
53052;SDS011;38934;52.690;6.184;2023-02-20T16:22:04;12.60;;;6.72;;
53052;SDS011;38934;52.690;6.184;2023-02-20T16:24:30;13.45;;;7.03;;
53052;SDS011;38934;52.690;6.184;2023-02-20T16:26:59;11.85;;;6.63;;
53052;SDS011;38934;52.690;6.184;2023-02-20T16:29:32;12.02;;;6.93;;
53052;SDS011;38934;52.690;6.184;2023-02-20T16:34:31;13.95;;;6.35;;
53052;SDS011;38934;52.690;6.184;2023-02-20T16:36:57;13.43;;;6.57;;
53052;SDS011;38934;52.690;6.184;2023-02-20T16:39:23;10.32;;;6.93;;
53052;SDS011;38934;52.690;6.184;2023-02-20T16:41:50;10.32;;;6.63;;
53052;SDS011;38934;52.690;6.184;2023-02-20T16:44:25;14.50;;;6.75;;
53052;SDS011;38934;52.690;6.184;2023-02-20T16:46:53;15.27;;;7.03;;
53052;SDS011;38934;52.690;6.184;2023-02-20T16:49:19;14.45;;;7.30;;
53052;SDS011;38934;52.690;6.184;2023-02-20T16:51:46;12.98;;;7.63;;
53052;SDS011;38934;52.690;6.184;2023-02-20T16:54:15;12.25;;;6.47;;
53052;SDS011;38934;52.690;6.184;2023-02-20T16:56:41;12.65;;;7.63;;
53052;SDS011;38934;52.690;6.184;2023-02-20T16:59:07;15.27;;;8.40;;
53052;SDS011;38934;52.690;6.184;2023-02-20T17:01:34;12.23;;;7.18;;
53052;SDS011;38934;52.690;6.184;2023-02-20T17:04:00;12.60;;;7.07;;
53052;SDS011;38934;52.690;6.184;2023-02-20T17:06:26;16.52;;;9.05;;
53052;SDS011;38934;52.690;6.184;2023-02-20T17:08:54;14.63;;;8.55;;
53052;SDS011;38934;52.690;6.184;2023-02-20T17:11:21;14.13;;;8.25;;
53052;SDS011;38934;52.690;6.184;2023-02-20T17:13:47;15.57;;;8.60;;